Main page
METAR-TAF:

METAR-TAF

Airports :

Basra, Iraq

Basra International Airport

latitude: 30-32-56N, longitude: 47-39-45E, elevation: 1 m

Current weather observation

The report was made 24 minutes ago, at 20:00 UTC
Wind 6 kt from the West
Temperature 9°C
Humidity 49%
Pressure 1025 hPa
Visibility 10 km or more
no clouds below 1500 m and no cumulonimbus

METAR: ORMM 182000Z 26006KT CAVOK 09/M01 Q1025 NOSIG

Time: 23:24 (20:24 UTC)

Forecast

The report was made 4 hours and 24 minutes ago, at 16:00 UTC
Forecast valid from 18 at 18 UTC to 19 at 18 UTC
Wind 8 kt from the West
Visibility 10 km or more
no clouds below 1500 m and no cumulonimbus

TAF: ORMM 181600Z 1818/1918 28008KT CAVOK

Weather observations and forecasts of more than 4000 airports (METAR and TAF reports).

The available stations are represented by yellow and red dots on the map.

Hover mouse over dot to see the name of the station.

Then click to see weather observations and forecasts.

To change the map : click on the green buttons with a black cross to zoom in, on the green button with a dash to zoom out, or on the green arrows for adjacent maps.


METAR-TAF: